sensor_id;sensor_type;location;lat;lon;timestamp;temperature;humidity
21255;DHT22;10785;50.674;17.954;2022-11-20T00:01:39;-5.00;1.00
21255;DHT22;10785;50.674;17.954;2022-11-20T00:04:09;-5.00;1.00
21255;DHT22;10785;50.674;17.954;2022-11-20T00:06:38;-5.00;1.00
21255;DHT22;10785;50.674;17.954;2022-11-20T00:09:10;-5.00;1.00
21255;DHT22;10785;50.674;17.954;2022-11-20T00:11:39;-5.00;1.00
21255;DHT22;10785;50.674;17.954;2022-11-20T00:14:10;-5.00;1.00
21255;DHT22;10785;50.674;17.954;2022-11-20T00:16:39;-5.00;1.00
21255;DHT22;10785;50.674;17.954;2022-11-20T00:19:08;-5.10;1.00
21255;DHT22;10785;50.674;17.954;2022-11-20T00:21:37;-5.10;1.00
21255;DHT22;10785;50.674;17.954;2022-11-20T00:24:08;-5.20;1.00
21255;DHT22;10785;50.674;17.954;2022-11-20T00:26:37;-5.20;1.00
21255;DHT22;10785;50.674;17.954;2022-11-20T00:29:09;-5.30;1.00
21255;DHT22;10785;50.674;17.954;2022-11-20T00:31:38;-5.30;1.00
21255;DHT22;10785;50.674;17.954;2022-11-20T00:34:06;-5.30;1.00
21255;DHT22;10785;50.674;17.954;2022-11-20T00:36:35;-5.30;1.00
21255;DHT22;10785;50.674;17.954;2022-11-20T00:39:04;-5.30;1.00
21255;DHT22;10785;50.674;17.954;2022-11-20T00:41:32;-5.30;1.00
21255;DHT22;10785;50.674;17.954;2022-11-20T00:44:01;-5.40;1.00
21255;DHT22;10785;50.674;17.954;2022-11-20T00:46:30;-5.40;1.00
21255;DHT22;10785;50.674;17.954;2022-11-20T00:48:59;-5.40;1.00
21255;DHT22;10785;50.674;17.954;2022-11-20T00:51:28;-5.30;1.00
21255;DHT22;10785;50.674;17.954;2022-11-20T00:53:57;-5.30;1.00
21255;DHT22;10785;50.674;17.954;2022-11-20T00:56:27;-5.30;1.00
21255;DHT22;10785;50.674;17.954;2022-11-20T00:58:58;-5.30;1.00
21255;DHT22;10785;50.674;17.954;2022-11-20T01:01:27;-5.20;1.00
21255;DHT22;10785;50.674;17.954;2022-11-20T01:03:59;-5.20;1.00
21255;DHT22;10785;50.674;17.954;2022-11-20T01:06:30;-5.20;1.00
21255;DHT22;10785;50.674;17.954;2022-11-20T01:09:01;-5.20;1.00
21255;DHT22;10785;50.674;17.954;2022-11-20T01:11:31;-5.10;1.00
21255;DHT22;10785;50.674;17.954;2022-11-20T01:14:02;-5.10;1.00
21255;DHT22;10785;50.674;17.954;2022-11-20T01:16:33;-5.10;1.00
21255;DHT22;10785;50.674;17.954;2022-11-20T01:19:05;-5.00;1.00
21255;DHT22;10785;50.674;17.954;2022-11-20T01:21:36;-5.00;1.00
21255;DHT22;10785;50.674;17.954;2022-11-20T01:24:07;-5.00;1.00
21255;DHT22;10785;50.674;17.954;2022-11-20T01:26:37;-5.00;1.00
21255;DHT22;10785;50.674;17.954;2022-11-20T01:29:08;-4.90;1.00
21255;DHT22;10785;50.674;17.954;2022-11-20T01:31:37;-5.00;1.00
21255;DHT22;10785;50.674;17.954;2022-11-20T01:34:09;-4.90;1.00
21255;DHT22;10785;50.674;17.954;2022-11-20T01:36:39;-4.90;1.00
21255;DHT22;10785;50.674;17.954;2022-11-20T01:39:10;-5.00;1.00
21255;DHT22;10785;50.674;17.954;2022-11-20T01:41:39;-5.10;1.00
21255;DHT22;10785;50.674;17.954;2022-11-20T01:44:47;-5.20;1.00
21255;DHT22;10785;50.674;17.954;2022-11-20T01:47:19;-5.20;1.00
21255;DHT22;10785;50.674;17.954;2022-11-20T01:49:55;-5.30;1.00
21255;DHT22;10785;50.674;17.954;2022-11-20T01:52:27;-5.30;1.00
21255;DHT22;10785;50.674;17.954;2022-11-20T01:55:00;-5.30;1.00
21255;DHT22;10785;50.674;17.954;2022-11-20T01:57:32;-5.30;1.00
21255;DHT22;10785;50.674;17.954;2022-11-20T02:00:06;-5.40;1.00
21255;DHT22;10785;50.674;17.954;2022-11-20T02:02:45;-5.50;1.00
21255;DHT22;10785;50.674;17.954;2022-11-20T02:05:20;-5.50;1.00
21255;DHT22;10785;50.674;17.954;2022-11-20T02:07:51;-5.50;1.00
21255;DHT22;10785;50.674;17.954;2022-11-20T02:10:20;-5.60;1.00
21255;DHT22;10785;50.674;17.954;2022-11-20T02:12:49;-5.60;1.00
21255;DHT22;10785;50.674;17.954;2022-11-20T02:15:36;-5.60;1.00
21255;DHT22;10785;50.674;17.954;2022-11-20T02:18:05;-5.60;1.00
21255;DHT22;10785;50.674;17.954;2022-11-20T02:20:36;-5.60;1.00
21255;DHT22;10785;50.674;17.954;2022-11-20T02:23:08;-5.50;1.00
21255;DHT22;10785;50.674;17.954;2022-11-20T02:25:42;-5.60;1.00
21255;DHT22;10785;50.674;17.954;2022-11-20T02:28:11;-5.60;1.00
21255;DHT22;10785;50.674;17.954;2022-11-20T02:30:39;-5.60;1.00
21255;DHT22;10785;50.674;17.954;2022-11-20T02:33:08;-5.60;1.00
21255;DHT22;10785;50.674;17.954;2022-11-20T02:35:42;-5.60;1.00
21255;DHT22;10785;50.674;17.954;2022-11-20T02:38:11;-5.70;1.00
21255;DHT22;10785;50.674;17.954;2022-11-20T02:40:42;-5.70;1.00
21255;DHT22;10785;50.674;17.954;2022-11-20T02:43:11;-5.70;1.00
21255;DHT22;10785;50.674;17.954;2022-11-20T02:45:39;-5.70;1.00
21255;DHT22;10785;50.674;17.954;2022-11-20T02:48:08;-5.70;1.00
21255;DHT22;10785;50.674;17.954;2022-11-20T02:50:37;-5.70;1.00
21255;DHT22;10785;50.674;17.954;2022-11-20T02:53:07;-5.80;1.00
21255;DHT22;10785;50.674;17.954;2022-11-20T02:55:35;-5.80;1.00
21255;DHT22;10785;50.674;17.954;2022-11-20T02:58:05;-5.80;1.00
21255;DHT22;10785;50.674;17.954;2022-11-20T03:00:34;-5.90;1.00
21255;DHT22;10785;50.674;17.954;2022-11-20T03:03:03;-5.80;1.00
21255;DHT22;10785;50.674;17.954;2022-11-20T03:05:31;-5.80;1.00
21255;DHT22;10785;50.674;17.954;2022-11-20T03:08:00;-5.70;1.00
21255;DHT22;10785;50.674;17.954;2022-11-20T03:10:28;-5.70;1.00
21255;DHT22;10785;50.674;17.954;2022-11-20T03:12:57;-5.70;1.00
21255;DHT22;10785;50.674;17.954;2022-11-20T03:15:27;-5.60;1.00
21255;DHT22;10785;50.674;17.954;2022-11-20T03:17:55;-5.60;1.00
21255;DHT22;10785;50.674;17.954;2022-11-20T03:20:24;-5.60;1.00
21255;DHT22;10785;50.674;17.954;2022-11-20T03:22:54;-5.70;1.00
21255;DHT22;10785;50.674;17.954;2022-11-20T03:25:23;-5.70;1.00
21255;DHT22;10785;50.674;17.954;2022-11-20T03:27:51;-5.80;1.00
21255;DHT22;10785;50.674;17.954;2022-11-20T03:30:20;-5.80;1.00
21255;DHT22;10785;50.674;17.954;2022-11-20T03:32:56;-5.90;1.00
21255;DHT22;10785;50.674;17.954;2022-11-20T03:35:25;-5.90;1.00
21255;DHT22;10785;50.674;17.954;2022-11-20T03:37:53;-5.70;1.00
21255;DHT22;10785;50.674;17.954;2022-11-20T03:40:22;-5.60;1.00
21255;DHT22;10785;50.674;17.954;2022-11-20T03:42:50;-5.60;1.00
21255;DHT22;10785;50.674;17.954;2022-11-20T03:45:19;-5.70;1.00
21255;DHT22;10785;50.674;17.954;2022-11-20T03:47:48;-5.70;1.00
21255;DHT22;10785;50.674;17.954;2022-11-20T03:50:18;-5.70;1.00
21255;DHT22;10785;50.674;17.954;2022-11-20T03:52:46;-5.80;1.00
21255;DHT22;10785;50.674;17.954;2022-11-20T03:55:15;-5.90;1.00
21255;DHT22;10785;50.674;17.954;2022-11-20T03:57:43;-5.90;1.00
21255;DHT22;10785;50.674;17.954;2022-11-20T04:00:13;-6.00;1.00
21255;DHT22;10785;50.674;17.954;2022-11-20T04:02:42;-6.00;1.00
21255;DHT22;10785;50.674;17.954;2022-11-20T04:05:11;-6.10;1.00
21255;DHT22;10785;50.674;17.954;2022-11-20T04:07:40;-6.10;1.00
21255;DHT22;10785;50.674;17.954;2022-11-20T04:10:09;-6.10;1.00
21255;DHT22;10785;50.674;17.954;2022-11-20T04:12:38;-6.10;1.00
21255;DHT22;10785;50.674;17.954;2022-11-20T04:15:07;-6.10;1.00
21255;DHT22;10785;50.674;17.954;2022-11-20T04:17:36;-6.20;1.00
21255;DHT22;10785;50.674;17.954;2022-11-20T04:20:05;-6.20;1.00
21255;DHT22;10785;50.674;17.954;2022-11-20T04:22:34;-6.30;1.00
21255;DHT22;10785;50.674;17.954;2022-11-20T04:25:06;-6.30;1.00
21255;DHT22;10785;50.674;17.954;2022-11-20T04:27:34;-6.30;1.00
21255;DHT22;10785;50.674;17.954;2022-11-20T04:30:03;-6.40;1.00
21255;DHT22;10785;50.674;17.954;2022-11-20T04:32:32;-6.40;1.00
21255;DHT22;10785;50.674;17.954;2022-11-20T04:35:00;-6.40;1.00
21255;DHT22;10785;50.674;17.954;2022-11-20T04:37:29;-6.40;1.00
21255;DHT22;10785;50.674;17.954;2022-11-20T04:39:57;-6.40;1.00
21255;DHT22;10785;50.674;17.954;2022-11-20T04:42:27;-6.40;1.00
21255;DHT22;10785;50.674;17.954;2022-11-20T04:44:58;-6.50;1.00
21255;DHT22;10785;50.674;17.954;2022-11-20T04:47:29;-6.50;1.00
21255;DHT22;10785;50.674;17.954;2022-11-20T04:49:58;-6.50;1.00
21255;DHT22;10785;50.674;17.954;2022-11-20T04:52:29;-6.50;1.00
21255;DHT22;10785;50.674;17.954;2022-11-20T04:54:57;-6.50;1.00
21255;DHT22;10785;50.674;17.954;2022-11-20T04:57:27;-6.50;1.00
21255;DHT22;10785;50.674;17.954;2022-11-20T04:59:56;-6.50;1.00
21255;DHT22;10785;50.674;17.954;2022-11-20T05:02:25;-6.40;1.00
21255;DHT22;10785;50.674;17.954;2022-11-20T05:04:53;-6.40;1.00
21255;DHT22;10785;50.674;17.954;2022-11-20T05:07:22;-6.50;1.00
21255;DHT22;10785;50.674;17.954;2022-11-20T05:09:51;-6.50;1.00
21255;DHT22;10785;50.674;17.954;2022-11-20T05:12:19;-6.50;1.00
21255;DHT22;10785;50.674;17.954;2022-11-20T05:14:49;-6.60;1.00
21255;DHT22;10785;50.674;17.954;2022-11-20T05:17:18;-6.60;1.00
21255;DHT22;10785;50.674;17.954;2022-11-20T05:19:46;-6.70;1.00
21255;DHT22;10785;50.674;17.954;2022-11-20T05:22:19;-6.60;1.00
21255;DHT22;10785;50.674;17.954;2022-11-20T05:24:47;-6.60;1.00
21255;DHT22;10785;50.674;17.954;2022-11-20T05:27:16;-6.60;1.00
21255;DHT22;10785;50.674;17.954;2022-11-20T05:29:46;-6.60;1.00
21255;DHT22;10785;50.674;17.954;2022-11-20T05:32:15;-6.60;1.00
21255;DHT22;10785;50.674;17.954;2022-11-20T05:34:44;-6.60;1.00
21255;DHT22;10785;50.674;17.954;2022-11-20T05:37:12;-6.60;1.00
21255;DHT22;10785;50.674;17.954;2022-11-20T05:39:41;-6.50;1.00
21255;DHT22;10785;50.674;17.954;2022-11-20T05:42:09;-6.50;1.00
21255;DHT22;10785;50.674;17.954;2022-11-20T05:44:56;-6.50;1.00
21255;DHT22;10785;50.674;17.954;2022-11-20T05:47:27;-6.50;1.00
21255;DHT22;10785;50.674;17.954;2022-11-20T05:49:55;-6.60;1.00
21255;DHT22;10785;50.674;17.954;2022-11-20T05:52:24;-6.60;1.00
21255;DHT22;10785;50.674;17.954;2022-11-20T05:54:53;-6.60;1.00
21255;DHT22;10785;50.674;17.954;2022-11-20T05:57:22;-6.60;1.00
21255;DHT22;10785;50.674;17.954;2022-11-20T05:59:50;-6.60;1.00
21255;DHT22;10785;50.674;17.954;2022-11-20T06:02:19;-6.60;1.00
21255;DHT22;10785;50.674;17.954;2022-11-20T06:04:49;-6.50;1.00
21255;DHT22;10785;50.674;17.954;2022-11-20T06:07:17;-6.60;1.00
21255;DHT22;10785;50.674;17.954;2022-11-20T06:09:46;-6.60;1.00
21255;DHT22;10785;50.674;17.954;2022-11-20T06:12:14;-6.60;1.00
21255;DHT22;10785;50.674;17.954;2022-11-20T06:14:43;-6.70;1.00
21255;DHT22;10785;50.674;17.954;2022-11-20T06:17:11;-6.70;1.00
21255;DHT22;10785;50.674;17.954;2022-11-20T06:19:40;-6.60;1.00
21255;DHT22;10785;50.674;17.954;2022-11-20T06:22:10;-6.60;1.00
21255;DHT22;10785;50.674;17.954;2022-11-20T06:24:39;-6.60;1.00
21255;DHT22;10785;50.674;17.954;2022-11-20T06:27:07;-6.50;1.00
21255;DHT22;10785;50.674;17.954;2022-11-20T06:29:36;-6.50;1.00
21255;DHT22;10785;50.674;17.954;2022-11-20T06:32:05;-6.40;1.00
21255;DHT22;10785;50.674;17.954;2022-11-20T06:34:33;-6.40;1.00
21255;DHT22;10785;50.674;17.954;2022-11-20T06:37:02;-6.30;1.00
21255;DHT22;10785;50.674;17.954;2022-11-20T06:39:32;-6.20;1.00
21255;DHT22;10785;50.674;17.954;2022-11-20T06:42:00;-6.20;1.00
21255;DHT22;10785;50.674;17.954;2022-11-20T06:44:28;-6.10;1.00
21255;DHT22;10785;50.674;17.954;2022-11-20T06:46:57;-6.10;1.00
21255;DHT22;10785;50.674;17.954;2022-11-20T06:49:25;-6.00;1.00
21255;DHT22;10785;50.674;17.954;2022-11-20T06:51:54;-6.00;1.00
21255;DHT22;10785;50.674;17.954;2022-11-20T06:54:23;-6.00;1.00
21255;DHT22;10785;50.674;17.954;2022-11-20T06:56:53;-5.90;1.00
21255;DHT22;10785;50.674;17.954;2022-11-20T06:59:21;-5.80;1.00
21255;DHT22;10785;50.674;17.954;2022-11-20T07:01:50;-5.70;1.00
21255;DHT22;10785;50.674;17.954;2022-11-20T07:04:18;-5.70;1.00
21255;DHT22;10785;50.674;17.954;2022-11-20T07:06:48;-5.60;1.00
21255;DHT22;10785;50.674;17.954;2022-11-20T07:09:16;-5.50;1.00
21255;DHT22;10785;50.674;17.954;2022-11-20T07:11:45;-5.40;1.00
21255;DHT22;10785;50.674;17.954;2022-11-20T07:14:15;-5.30;1.00
21255;DHT22;10785;50.674;17.954;2022-11-20T07:16:43;-5.30;1.00
21255;DHT22;10785;50.674;17.954;2022-11-20T07:19:12;-5.20;1.00
21255;DHT22;10785;50.674;17.954;2022-11-20T07:21:40;-5.10;1.00
21255;DHT22;10785;50.674;17.954;2022-11-20T07:24:09;-5.00;1.00
21255;DHT22;10785;50.674;17.954;2022-11-20T07:26:38;-5.00;1.00
21255;DHT22;10785;50.674;17.954;2022-11-20T07:29:07;-5.00;1.00
21255;DHT22;10785;50.674;17.954;2022-11-20T07:31:37;-4.90;1.00
21255;DHT22;10785;50.674;17.954;2022-11-20T07:34:05;-4.90;1.30
21255;DHT22;10785;50.674;17.954;2022-11-20T07:36:34;-4.90;4.30
21255;DHT22;10785;50.674;17.954;2022-11-20T07:39:02;-4.90;7.00
21255;DHT22;10785;50.674;17.954;2022-11-20T07:41:31;-4.80;1.40
21255;DHT22;10785;50.674;17.954;2022-11-20T07:43:59;-4.70;1.00
21255;DHT22;10785;50.674;17.954;2022-11-20T07:46:28;-4.70;1.00
21255;DHT22;10785;50.674;17.954;2022-11-20T07:48:58;-4.60;1.00
21255;DHT22;10785;50.674;17.954;2022-11-20T07:51:27;-4.40;1.00
21255;DHT22;10785;50.674;17.954;2022-11-20T07:53:57;-4.30;1.00
21255;DHT22;10785;50.674;17.954;2022-11-20T07:56:26;-4.10;1.00
21255;DHT22;10785;50.674;17.954;2022-11-20T07:58:55;-4.00;1.00
21255;DHT22;10785;50.674;17.954;2022-11-20T08:01:24;-4.00;1.00
21255;DHT22;10785;50.674;17.954;2022-11-20T08:03:52;-3.90;1.00
21255;DHT22;10785;50.674;17.954;2022-11-20T08:06:22;-3.80;1.00
21255;DHT22;10785;50.674;17.954;2022-11-20T08:08:51;-3.80;1.00
21255;DHT22;10785;50.674;17.954;2022-11-20T08:11:20;-3.70;1.00
21255;DHT22;10785;50.674;17.954;2022-11-20T08:14:07;-3.60;1.00
21255;DHT22;10785;50.674;17.954;2022-11-20T08:16:43;-3.60;1.00
21255;DHT22;10785;50.674;17.954;2022-11-20T08:19:12;-3.60;1.00
21255;DHT22;10785;50.674;17.954;2022-11-20T08:21:43;-3.50;1.00
21255;DHT22;10785;50.674;17.954;2022-11-20T08:24:12;-3.50;1.00
21255;DHT22;10785;50.674;17.954;2022-11-20T08:26:41;-3.40;1.00
21255;DHT22;10785;50.674;17.954;2022-11-20T08:29:10;-3.30;1.00
21255;DHT22;10785;50.674;17.954;2022-11-20T08:31:38;-3.20;1.00
21255;DHT22;10785;50.674;17.954;2022-11-20T08:34:07;-3.10;1.00
21255;DHT22;10785;50.674;17.954;2022-11-20T08:36:37;-3.10;1.00
21255;DHT22;10785;50.674;17.954;2022-11-20T08:39:07;-3.00;1.00
21255;DHT22;10785;50.674;17.954;2022-11-20T08:41:35;-2.90;1.00
21255;DHT22;10785;50.674;17.954;2022-11-20T08:44:06;-2.80;1.00
21255;DHT22;10785;50.674;17.954;2022-11-20T08:46:36;-2.70;1.00
21255;DHT22;10785;50.674;17.954;2022-11-20T08:49:07;-2.60;1.00
21255;DHT22;10785;50.674;17.954;2022-11-20T08:51:36;-2.50;1.00
21255;DHT22;10785;50.674;17.954;2022-11-20T08:54:07;-2.50;1.00
21255;DHT22;10785;50.674;17.954;2022-11-20T08:56:36;-2.30;1.00
21255;DHT22;10785;50.674;17.954;2022-11-20T08:59:04;-2.20;1.00
21255;DHT22;10785;50.674;17.954;2022-11-20T09:01:53;-2.10;1.00
21255;DHT22;10785;50.674;17.954;2022-11-20T09:04:21;-2.00;1.00
21255;DHT22;10785;50.674;17.954;2022-11-20T09:06:50;-1.90;1.00
21255;DHT22;10785;50.674;17.954;2022-11-20T09:09:20;-1.90;1.00
21255;DHT22;10785;50.674;17.954;2022-11-20T09:11:49;-1.90;1.00
21255;DHT22;10785;50.674;17.954;2022-11-20T09:14:18;-1.70;1.00
21255;DHT22;10785;50.674;17.954;2022-11-20T09:16:46;-1.60;1.00
21255;DHT22;10785;50.674;17.954;2022-11-20T09:19:15;-1.50;1.00
21255;DHT22;10785;50.674;17.954;2022-11-20T09:22:03;-1.50;1.00
21255;DHT22;10785;50.674;17.954;2022-11-20T09:24:33;-1.40;1.00
21255;DHT22;10785;50.674;17.954;2022-11-20T09:27:03;-1.40;1.00
21255;DHT22;10785;50.674;17.954;2022-11-20T09:29:32;-1.30;1.00
21255;DHT22;10785;50.674;17.954;2022-11-20T09:32:00;-1.30;1.00
21255;DHT22;10785;50.674;17.954;2022-11-20T09:34:29;-1.20;1.00
21255;DHT22;10785;50.674;17.954;2022-11-20T09:36:57;-1.10;1.00
21255;DHT22;10785;50.674;17.954;2022-11-20T09:39:33;-1.00;1.00
21255;DHT22;10785;50.674;17.954;2022-11-20T09:42:18;-0.90;1.00
21255;DHT22;10785;50.674;17.954;2022-11-20T09:47:54;-0.80;1.00
21255;DHT22;10785;50.674;17.954;2022-11-20T09:50:31;-0.60;1.00
21255;DHT22;10785;50.674;17.954;2022-11-20T09:53:11;-0.60;1.00
21255;DHT22;10785;50.674;17.954;2022-11-20T09:55:42;-0.60;1.00
21255;DHT22;10785;50.674;17.954;2022-11-20T09:58:25;-0.50;1.00
21255;DHT22;10785;50.674;17.954;2022-11-20T10:00:57;-0.50;1.00
21255;DHT22;10785;50.674;17.954;2022-11-20T10:03:37;-0.40;1.00
21255;DHT22;10785;50.674;17.954;2022-11-20T10:06:12;-0.30;1.00
21255;DHT22;10785;50.674;17.954;2022-11-20T10:08:44;-0.20;1.00
21255;DHT22;10785;50.674;17.954;2022-11-20T10:11:20;-0.20;1.00
21255;DHT22;10785;50.674;17.954;2022-11-20T10:13:58;-0.10;1.00
21255;DHT22;10785;50.674;17.954;2022-11-20T10:16:36;0.10;1.00
21255;DHT22;10785;50.674;17.954;2022-11-20T10:19:18;0.10;1.00
21255;DHT22;10785;50.674;17.954;2022-11-20T10:21:56;0.10;1.00
21255;DHT22;10785;50.674;17.954;2022-11-20T10:24:43;0.10;1.00
21255;DHT22;10785;50.674;17.954;2022-11-20T10:30:13;0.30;1.00
21255;DHT22;10785;50.674;17.954;2022-11-20T10:32:44;0.40;1.00
21255;DHT22;10785;50.674;17.954;2022-11-20T10:35:21;0.40;1.00
21255;DHT22;10785;50.674;17.954;2022-11-20T10:37:56;0.40;1.00
21255;DHT22;10785;50.674;17.954;2022-11-20T10:40:32;0.40;1.00
21255;DHT22;10785;50.674;17.954;2022-11-20T10:43:08;0.40;1.00
21255;DHT22;10785;50.674;17.954;2022-11-20T10:45:47;0.50;4.90
21255;DHT22;10785;50.674;17.954;2022-11-20T10:48:20;0.60;1.00
21255;DHT22;10785;50.674;17.954;2022-11-20T10:50:57;0.60;1.00
21255;DHT22;10785;50.674;17.954;2022-11-20T10:53:41;0.80;8.20
21255;DHT22;10785;50.674;17.954;2022-11-20T10:56:19;0.80;4.30
21255;DHT22;10785;50.674;17.954;2022-11-20T10:59:05;0.90;1.00
21255;DHT22;10785;50.674;17.954;2022-11-20T11:01:42;1.00;1.00
21255;DHT22;10785;50.674;17.954;2022-11-20T11:04:23;1.00;1.00
21255;DHT22;10785;50.674;17.954;2022-11-20T11:07:02;1.10;1.00
21255;DHT22;10785;50.674;17.954;2022-11-20T11:09:37;1.10;1.00
21255;DHT22;10785;50.674;17.954;2022-11-20T11:12:08;1.10;1.00
21255;DHT22;10785;50.674;17.954;2022-11-20T11:14:49;1.10;1.00
21255;DHT22;10785;50.674;17.954;2022-11-20T11:17:24;1.20;1.00
21255;DHT22;10785;50.674;17.954;2022-11-20T11:20:05;1.30;1.00
21255;DHT22;10785;50.674;17.954;2022-11-20T11:22:43;1.40;1.00
21255;DHT22;10785;50.674;17.954;2022-11-20T11:25:22;1.30;1.00
21255;DHT22;10785;50.674;17.954;2022-11-20T11:27:52;1.40;1.00
21255;DHT22;10785;50.674;17.954;2022-11-20T11:30:25;1.50;1.00
21255;DHT22;10785;50.674;17.954;2022-11-20T11:33:06;1.40;1.00
21255;DHT22;10785;50.674;17.954;2022-11-20T11:35:44;1.50;4.30
21255;DHT22;10785;50.674;17.954;2022-11-20T11:38:21;1.50;3.50
21255;DHT22;10785;50.674;17.954;2022-11-20T11:40:52;1.50;1.00
21255;DHT22;10785;50.674;17.954;2022-11-20T11:43:24;1.60;1.00
21255;DHT22;10785;50.674;17.954;2022-11-20T11:46:32;1.60;1.00
21255;DHT22;10785;50.674;17.954;2022-11-20T11:49:15;1.60;1.00
21255;DHT22;10785;50.674;17.954;2022-11-20T11:52:00;1.70;1.00
21255;DHT22;10785;50.674;17.954;2022-11-20T11:54:34;1.60;1.00
21255;DHT22;10785;50.674;17.954;2022-11-20T11:57:10;1.60;1.00
21255;DHT22;10785;50.674;17.954;2022-11-20T11:59:47;1.60;1.00
21255;DHT22;10785;50.674;17.954;2022-11-20T12:02:29;1.50;1.00
21255;DHT22;10785;50.674;17.954;2022-11-20T12:05:05;1.50;1.00
21255;DHT22;10785;50.674;17.954;2022-11-20T12:07:43;1.60;1.00
21255;DHT22;10785;50.674;17.954;2022-11-20T12:10:19;1.70;1.00
21255;DHT22;10785;50.674;17.954;2022-11-20T12:12:51;1.70;1.00
21255;DHT22;10785;50.674;17.954;2022-11-20T12:15:30;1.60;1.00
21255;DHT22;10785;50.674;17.954;2022-11-20T12:18:00;1.50;1.00
21255;DHT22;10785;50.674;17.954;2022-11-20T12:20:45;1.60;1.00
21255;DHT22;10785;50.674;17.954;2022-11-20T12:23:19;1.60;1.00
21255;DHT22;10785;50.674;17.954;2022-11-20T12:25:54;1.50;1.00
21255;DHT22;10785;50.674;17.954;2022-11-20T12:28:44;1.50;1.00
21255;DHT22;10785;50.674;17.954;2022-11-20T12:31:30;1.50;1.00
21255;DHT22;10785;50.674;17.954;2022-11-20T12:34:18;1.50;1.00
21255;DHT22;10785;50.674;17.954;2022-11-20T12:36:56;1.40;1.00
21255;DHT22;10785;50.674;17.954;2022-11-20T12:39:34;1.40;1.00
21255;DHT22;10785;50.674;17.954;2022-11-20T12:42:31;1.40;1.00
21255;DHT22;10785;50.674;17.954;2022-11-20T12:45:41;1.40;1.00
21255;DHT22;10785;50.674;17.954;2022-11-20T12:51:31;1.50;1.00
21255;DHT22;10785;50.674;17.954;2022-11-20T12:54:23;1.50;1.00
21255;DHT22;10785;50.674;17.954;2022-11-20T12:57:00;1.50;1.00
21255;DHT22;10785;50.674;17.954;2022-11-20T12:59:47;1.60;1.00
21255;DHT22;10785;50.674;17.954;2022-11-20T13:02:25;1.60;1.00
21255;DHT22;10785;50.674;17.954;2022-11-20T13:07:59;1.50;1.00
21255;DHT22;10785;50.674;17.954;2022-11-20T13:10:35;1.50;1.00
21255;DHT22;10785;50.674;17.954;2022-11-20T13:13:14;1.50;1.00
21255;DHT22;10785;50.674;17.954;2022-11-20T13:15:51;1.50;1.00
21255;DHT22;10785;50.674;17.954;2022-11-20T13:18:22;1.50;1.00
21255;DHT22;10785;50.674;17.954;2022-11-20T13:20:52;1.40;1.00
21255;DHT22;10785;50.674;17.954;2022-11-20T13:23:27;1.40;1.00
21255;DHT22;10785;50.674;17.954;2022-11-20T13:26:04;1.30;1.00
21255;DHT22;10785;50.674;17.954;2022-11-20T13:28:36;1.10;1.00
21255;DHT22;10785;50.674;17.954;2022-11-20T13:31:21;1.00;1.00
21255;DHT22;10785;50.674;17.954;2022-11-20T13:33:55;0.90;1.00
21255;DHT22;10785;50.674;17.954;2022-11-20T13:36:26;0.80;1.00
21255;DHT22;10785;50.674;17.954;2022-11-20T13:38:57;0.70;1.00
21255;DHT22;10785;50.674;17.954;2022-11-20T13:41:27;0.70;1.00
21255;DHT22;10785;50.674;17.954;2022-11-20T13:44:10;0.70;1.00
21255;DHT22;10785;50.674;17.954;2022-11-20T13:46:41;0.80;1.00
21255;DHT22;10785;50.674;17.954;2022-11-20T13:49:17;0.80;1.00
21255;DHT22;10785;50.674;17.954;2022-11-20T13:51:47;0.80;1.00
21255;DHT22;10785;50.674;17.954;2022-11-20T13:57:40;0.70;1.00
21255;DHT22;10785;50.674;17.954;2022-11-20T14:00:13;0.60;1.00
21255;DHT22;10785;50.674;17.954;2022-11-20T14:02:43;0.60;1.00
21255;DHT22;10785;50.674;17.954;2022-11-20T14:05:19;0.60;1.00
21255;DHT22;10785;50.674;17.954;2022-11-20T14:07:50;0.60;1.00
21255;DHT22;10785;50.674;17.954;2022-11-20T14:10:23;0.50;1.00
21255;DHT22;10785;50.674;17.954;2022-11-20T14:12:57;0.50;1.00
21255;DHT22;10785;50.674;17.954;2022-11-20T14:15:29;0.40;1.00
21255;DHT22;10785;50.674;17.954;2022-11-20T14:17:58;0.40;1.00
21255;DHT22;10785;50.674;17.954;2022-11-20T14:20:29;0.40;1.00
21255;DHT22;10785;50.674;17.954;2022-11-20T14:22:58;0.30;1.00
21255;DHT22;10785;50.674;17.954;2022-11-20T14:25:28;0.30;1.00
21255;DHT22;10785;50.674;17.954;2022-11-20T14:28:00;0.30;1.00
21255;DHT22;10785;50.674;17.954;2022-11-20T14:30:35;0.20;1.00
21255;DHT22;10785;50.674;17.954;2022-11-20T14:33:06;0.20;1.00
21255;DHT22;10785;50.674;17.954;2022-11-20T14:35:40;0.20;1.00
21255;DHT22;10785;50.674;17.954;2022-11-20T14:38:14;0.20;1.00
21255;DHT22;10785;50.674;17.954;2022-11-20T14:40:45;0.20;1.00
21255;DHT22;10785;50.674;17.954;2022-11-20T14:43:22;0.20;1.00
21255;DHT22;10785;50.674;17.954;2022-11-20T14:45:56;0.20;1.00
21255;DHT22;10785;50.674;17.954;2022-11-20T14:48:29;0.20;1.00
21255;DHT22;10785;50.674;17.954;2022-11-20T14:51:00;0.10;1.00
21255;DHT22;10785;50.674;17.954;2022-11-20T14:53:28;0.00;1.00
21255;DHT22;10785;50.674;17.954;2022-11-20T14:56:01;-0.10;1.00
21255;DHT22;10785;50.674;17.954;2022-11-20T14:58:33;-0.20;1.00
21255;DHT22;10785;50.674;17.954;2022-11-20T15:01:04;-0.30;1.00
21255;DHT22;10785;50.674;17.954;2022-11-20T15:03:35;-0.40;1.00
21255;DHT22;10785;50.674;17.954;2022-11-20T15:06:06;-0.30;1.00
21255;DHT22;10785;50.674;17.954;2022-11-20T15:08:35;-0.40;1.00
21255;DHT22;10785;50.674;17.954;2022-11-20T15:11:16;-0.30;1.00
21255;DHT22;10785;50.674;17.954;2022-11-20T15:13:45;-0.30;1.00
21255;DHT22;10785;50.674;17.954;2022-11-20T15:16:18;-0.20;1.00
21255;DHT22;10785;50.674;17.954;2022-11-20T15:18:48;-0.10;1.00
21255;DHT22;10785;50.674;17.954;2022-11-20T15:21:18;-0.10;1.00
21255;DHT22;10785;50.674;17.954;2022-11-20T15:23:48;0.00;1.00
21255;DHT22;10785;50.674;17.954;2022-11-20T15:26:23;0.00;1.00
21255;DHT22;10785;50.674;17.954;2022-11-20T15:28:53;0.10;1.00
21255;DHT22;10785;50.674;17.954;2022-11-20T15:31:22;0.10;1.00
21255;DHT22;10785;50.674;17.954;2022-11-20T15:33:52;0.10;1.00
21255;DHT22;10785;50.674;17.954;2022-11-20T15:36:21;0.20;1.00
21255;DHT22;10785;50.674;17.954;2022-11-20T15:38:50;0.20;1.00
21255;DHT22;10785;50.674;17.954;2022-11-20T15:41:20;0.30;1.00
21255;DHT22;10785;50.674;17.954;2022-11-20T15:43:48;0.30;1.00
21255;DHT22;10785;50.674;17.954;2022-11-20T15:46:23;0.30;1.00
21255;DHT22;10785;50.674;17.954;2022-11-20T15:48:55;0.30;1.00
21255;DHT22;10785;50.674;17.954;2022-11-20T15:51:27;0.40;1.00
21255;DHT22;10785;50.674;17.954;2022-11-20T15:53:56;0.40;1.00
21255;DHT22;10785;50.674;17.954;2022-11-20T15:56:27;0.40;1.00
21255;DHT22;10785;50.674;17.954;2022-11-20T15:58:55;0.40;1.00
21255;DHT22;10785;50.674;17.954;2022-11-20T16:01:24;0.40;1.00
21255;DHT22;10785;50.674;17.954;2022-11-20T16:03:53;0.50;1.00
21255;DHT22;10785;50.674;17.954;2022-11-20T16:06:21;0.50;1.00
21255;DHT22;10785;50.674;17.954;2022-11-20T16:08:51;0.50;1.00
21255;DHT22;10785;50.674;17.954;2022-11-20T16:11:20;0.50;1.00
21255;DHT22;10785;50.674;17.954;2022-11-20T16:13:50;0.50;1.00
21255;DHT22;10785;50.674;17.954;2022-11-20T16:16:37;0.50;1.00
21255;DHT22;10785;50.674;17.954;2022-11-20T16:19:10;0.60;1.00
21255;DHT22;10785;50.674;17.954;2022-11-20T16:21:39;0.60;1.00